sensor_id;sensor_type;location;lat;lon;timestamp;P1;durP1;ratioP1;P2;durP2;ratioP2
19207;SDS011;9737;59.466;18.036;2024-01-30T00:01:11;38.83;;;12.65;;
19207;SDS011;9737;59.466;18.036;2024-01-30T00:03:39;46.78;;;12.75;;
19207;SDS011;9737;59.466;18.036;2024-01-30T00:06:08;37.38;;;12.55;;
19207;SDS011;9737;59.466;18.036;2024-01-30T00:08:36;42.45;;;11.35;;
19207;SDS011;9737;59.466;18.036;2024-01-30T00:11:04;34.75;;;11.90;;
19207;SDS011;9737;59.466;18.036;2024-01-30T00:13:31;34.78;;;11.88;;
19207;SDS011;9737;59.466;18.036;2024-01-30T00:15:59;39.42;;;11.88;;
19207;SDS011;9737;59.466;18.036;2024-01-30T00:18:27;39.35;;;11.82;;
19207;SDS011;9737;59.466;18.036;2024-01-30T00:20:55;37.75;;;11.85;;
19207;SDS011;9737;59.466;18.036;2024-01-30T00:23:24;39.40;;;12.32;;
19207;SDS011;9737;59.466;18.036;2024-01-30T00:25:52;39.75;;;12.15;;
19207;SDS011;9737;59.466;18.036;2024-01-30T00:28:20;42.55;;;13.15;;
19207;SDS011;9737;59.466;18.036;2024-01-30T00:30:48;39.03;;;12.18;;
19207;SDS011;9737;59.466;18.036;2024-01-30T00:33:16;39.63;;;11.85;;
19207;SDS011;9737;59.466;18.036;2024-01-30T00:35:43;43.33;;;12.10;;
19207;SDS011;9737;59.466;18.036;2024-01-30T00:38:12;38.42;;;11.90;;
19207;SDS011;9737;59.466;18.036;2024-01-30T00:40:41;47.00;;;12.35;;
19207;SDS011;9737;59.466;18.036;2024-01-30T00:43:09;46.33;;;12.68;;
19207;SDS011;9737;59.466;18.036;2024-01-30T00:45:37;48.92;;;11.82;;
19207;SDS011;9737;59.466;18.036;2024-01-30T00:48:05;54.70;;;11.93;;
19207;SDS011;9737;59.466;18.036;2024-01-30T00:50:33;40.85;;;13.52;;
19207;SDS011;9737;59.466;18.036;2024-01-30T00:53:01;35.78;;;11.80;;
19207;SDS011;9737;59.466;18.036;2024-01-30T00:55:29;51.35;;;13.05;;
19207;SDS011;9737;59.466;18.036;2024-01-30T00:57:58;39.85;;;12.75;;
19207;SDS011;9737;59.466;18.036;2024-01-30T01:00:26;41.83;;;13.23;;
19207;SDS011;9737;59.466;18.036;2024-01-30T01:02:55;42.92;;;13.48;;
19207;SDS011;9737;59.466;18.036;2024-01-30T01:05:23;52.97;;;13.15;;
19207;SDS011;9737;59.466;18.036;2024-01-30T01:07:51;43.63;;;12.90;;
19207;SDS011;9737;59.466;18.036;2024-01-30T01:10:19;44.42;;;13.45;;
19207;SDS011;9737;59.466;18.036;2024-01-30T01:12:47;39.40;;;12.50;;
19207;SDS011;9737;59.466;18.036;2024-01-30T01:15:17;54.70;;;13.10;;
19207;SDS011;9737;59.466;18.036;2024-01-30T01:17:45;40.13;;;12.43;;
19207;SDS011;9737;59.466;18.036;2024-01-30T01:20:18;42.17;;;13.00;;
19207;SDS011;9737;59.466;18.036;2024-01-30T01:22:46;41.78;;;12.60;;
19207;SDS011;9737;59.466;18.036;2024-01-30T01:25:14;39.58;;;11.77;;
19207;SDS011;9737;59.466;18.036;2024-01-30T01:27:42;53.20;;;12.98;;
19207;SDS011;9737;59.466;18.036;2024-01-30T01:30:19;57.33;;;13.55;;
19207;SDS011;9737;59.466;18.036;2024-01-30T01:32:48;46.17;;;13.73;;
19207;SDS011;9737;59.466;18.036;2024-01-30T01:35:21;40.03;;;12.10;;
19207;SDS011;9737;59.466;18.036;2024-01-30T01:37:51;38.28;;;13.30;;
19207;SDS011;9737;59.466;18.036;2024-01-30T01:40:22;48.47;;;12.88;;
19207;SDS011;9737;59.466;18.036;2024-01-30T01:42:50;39.25;;;12.93;;
19207;SDS011;9737;59.466;18.036;2024-01-30T01:45:20;46.15;;;12.50;;
19207;SDS011;9737;59.466;18.036;2024-01-30T01:47:50;41.55;;;11.95;;
19207;SDS011;9737;59.466;18.036;2024-01-30T01:50:19;48.08;;;13.27;;
19207;SDS011;9737;59.466;18.036;2024-01-30T01:52:49;40.00;;;13.18;;
19207;SDS011;9737;59.466;18.036;2024-01-30T01:55:18;53.78;;;12.00;;
19207;SDS011;9737;59.466;18.036;2024-01-30T01:57:50;58.75;;;13.27;;
19207;SDS011;9737;59.466;18.036;2024-01-30T02:00:22;59.35;;;13.55;;
19207;SDS011;9737;59.466;18.036;2024-01-30T02:02:52;46.15;;;12.75;;
19207;SDS011;9737;59.466;18.036;2024-01-30T02:05:21;81.40;;;17.02;;
19207;SDS011;9737;59.466;18.036;2024-01-30T02:07:51;87.75;;;15.73;;
19207;SDS011;9737;59.466;18.036;2024-01-30T02:10:19;91.78;;;15.45;;
19207;SDS011;9737;59.466;18.036;2024-01-30T02:12:48;74.43;;;15.02;;
19207;SDS011;9737;59.466;18.036;2024-01-30T02:15:16;81.20;;;15.32;;
19207;SDS011;9737;59.466;18.036;2024-01-30T02:17:45;100.40;;;16.13;;
19207;SDS011;9737;59.466;18.036;2024-01-30T02:20:13;100.07;;;15.45;;
19207;SDS011;9737;59.466;18.036;2024-01-30T02:22:43;71.63;;;15.07;;
19207;SDS011;9737;59.466;18.036;2024-01-30T02:25:11;79.07;;;15.23;;
19207;SDS011;9737;59.466;18.036;2024-01-30T02:27:39;209.77;;;19.52;;
19207;SDS011;9737;59.466;18.036;2024-01-30T02:30:07;131.52;;;15.30;;
19207;SDS011;9737;59.466;18.036;2024-01-30T02:32:35;162.02;;;17.77;;
19207;SDS011;9737;59.466;18.036;2024-01-30T02:35:03;200.90;;;20.00;;
19207;SDS011;9737;59.466;18.036;2024-01-30T02:37:31;100.32;;;15.23;;
19207;SDS011;9737;59.466;18.036;2024-01-30T02:40:01;115.10;;;16.75;;
19207;SDS011;9737;59.466;18.036;2024-01-30T02:42:29;70.90;;;14.18;;
19207;SDS011;9737;59.466;18.036;2024-01-30T02:44:57;100.65;;;15.43;;
19207;SDS011;9737;59.466;18.036;2024-01-30T02:47:25;60.47;;;15.68;;
19207;SDS011;9737;59.466;18.036;2024-01-30T02:49:52;81.15;;;14.93;;
19207;SDS011;9737;59.466;18.036;2024-01-30T02:52:22;66.45;;;14.00;;
19207;SDS011;9737;59.466;18.036;2024-01-30T02:54:50;64.28;;;15.32;;
19207;SDS011;9737;59.466;18.036;2024-01-30T02:57:19;82.85;;;15.00;;
19207;SDS011;9737;59.466;18.036;2024-01-30T02:59:47;56.97;;;13.88;;
19207;SDS011;9737;59.466;18.036;2024-01-30T03:02:15;78.35;;;14.60;;
19207;SDS011;9737;59.466;18.036;2024-01-30T03:04:43;68.78;;;14.63;;
19207;SDS011;9737;59.466;18.036;2024-01-30T03:07:11;68.45;;;15.73;;
19207;SDS011;9737;59.466;18.036;2024-01-30T03:09:40;72.05;;;15.50;;
19207;SDS011;9737;59.466;18.036;2024-01-30T03:12:09;76.88;;;15.05;;
19207;SDS011;9737;59.466;18.036;2024-01-30T03:14:38;66.68;;;14.82;;
19207;SDS011;9737;59.466;18.036;2024-01-30T03:17:06;70.05;;;14.35;;
19207;SDS011;9737;59.466;18.036;2024-01-30T03:19:34;64.32;;;13.85;;
19207;SDS011;9737;59.466;18.036;2024-01-30T03:22:02;92.30;;;15.05;;
19207;SDS011;9737;59.466;18.036;2024-01-30T03:24:30;63.28;;;14.27;;
19207;SDS011;9737;59.466;18.036;2024-01-30T03:26:58;87.60;;;14.43;;
19207;SDS011;9737;59.466;18.036;2024-01-30T03:29:27;61.08;;;14.13;;
19207;SDS011;9737;59.466;18.036;2024-01-30T03:31:56;88.53;;;14.85;;
19207;SDS011;9737;59.466;18.036;2024-01-30T03:34:24;70.78;;;14.38;;
19207;SDS011;9737;59.466;18.036;2024-01-30T03:36:52;58.63;;;13.90;;
19207;SDS011;9737;59.466;18.036;2024-01-30T03:39:20;75.55;;;14.25;;
19207;SDS011;9737;59.466;18.036;2024-01-30T03:41:48;47.45;;;13.25;;
19207;SDS011;9737;59.466;18.036;2024-01-30T03:44:16;46.40;;;13.05;;
19207;SDS011;9737;59.466;18.036;2024-01-30T03:46:44;96.55;;;14.23;;
19207;SDS011;9737;59.466;18.036;2024-01-30T03:49:14;81.47;;;14.38;;
19207;SDS011;9737;59.466;18.036;2024-01-30T03:51:42;42.83;;;12.82;;
19207;SDS011;9737;59.466;18.036;2024-01-30T03:54:11;52.63;;;12.95;;
19207;SDS011;9737;59.466;18.036;2024-01-30T03:56:39;46.40;;;13.23;;
19207;SDS011;9737;59.466;18.036;2024-01-30T03:59:06;58.42;;;13.75;;
19207;SDS011;9737;59.466;18.036;2024-01-30T04:01:34;51.78;;;13.10;;
19207;SDS011;9737;59.466;18.036;2024-01-30T04:04:02;60.92;;;13.63;;
19207;SDS011;9737;59.466;18.036;2024-01-30T04:06:32;46.63;;;13.50;;
19207;SDS011;9737;59.466;18.036;2024-01-30T04:09:00;62.17;;;14.57;;
19207;SDS011;9737;59.466;18.036;2024-01-30T04:11:28;77.88;;;13.77;;
19207;SDS011;9737;59.466;18.036;2024-01-30T04:13:58;35.70;;;12.82;;
19207;SDS011;9737;59.466;18.036;2024-01-30T04:16:25;46.70;;;13.32;;
19207;SDS011;9737;59.466;18.036;2024-01-30T04:18:53;62.38;;;13.55;;
19207;SDS011;9737;59.466;18.036;2024-01-30T04:21:21;47.40;;;13.27;;
19207;SDS011;9737;59.466;18.036;2024-01-30T04:23:51;51.88;;;13.35;;
19207;SDS011;9737;59.466;18.036;2024-01-30T04:26:19;52.90;;;13.70;;
19207;SDS011;9737;59.466;18.036;2024-01-30T04:28:47;33.70;;;12.52;;
19207;SDS011;9737;59.466;18.036;2024-01-30T04:31:15;32.78;;;11.82;;
19207;SDS011;9737;59.466;18.036;2024-01-30T04:33:43;40.35;;;12.75;;
19207;SDS011;9737;59.466;18.036;2024-01-30T04:36:11;64.18;;;13.73;;
19207;SDS011;9737;59.466;18.036;2024-01-30T04:38:39;60.40;;;12.93;;
19207;SDS011;9737;59.466;18.036;2024-01-30T04:41:08;39.05;;;11.77;;
19207;SDS011;9737;59.466;18.036;2024-01-30T04:43:36;38.58;;;12.57;;
19207;SDS011;9737;59.466;18.036;2024-01-30T04:46:04;38.28;;;11.82;;
19207;SDS011;9737;59.466;18.036;2024-01-30T04:48:32;48.35;;;13.48;;
19207;SDS011;9737;59.466;18.036;2024-01-30T04:51:00;36.95;;;13.02;;
19207;SDS011;9737;59.466;18.036;2024-01-30T04:53:29;51.38;;;12.75;;
19207;SDS011;9737;59.466;18.036;2024-01-30T04:55:57;40.53;;;12.70;;
19207;SDS011;9737;59.466;18.036;2024-01-30T04:58:27;52.30;;;12.35;;
19207;SDS011;9737;59.466;18.036;2024-01-30T05:00:54;36.55;;;12.65;;
19207;SDS011;9737;59.466;18.036;2024-01-30T05:03:24;35.72;;;11.70;;
19207;SDS011;9737;59.466;18.036;2024-01-30T05:05:52;32.85;;;12.23;;
19207;SDS011;9737;59.466;18.036;2024-01-30T05:08:20;44.97;;;13.43;;
19207;SDS011;9737;59.466;18.036;2024-01-30T05:10:47;57.67;;;12.30;;
19207;SDS011;9737;59.466;18.036;2024-01-30T05:13:15;35.72;;;12.88;;
19207;SDS011;9737;59.466;18.036;2024-01-30T05:15:44;51.65;;;12.55;;
19207;SDS011;9737;59.466;18.036;2024-01-30T05:18:12;34.97;;;12.05;;
19207;SDS011;9737;59.466;18.036;2024-01-30T05:20:40;51.25;;;12.13;;
19207;SDS011;9737;59.466;18.036;2024-01-30T05:23:08;37.40;;;12.30;;
19207;SDS011;9737;59.466;18.036;2024-01-30T05:25:36;69.97;;;13.65;;
19207;SDS011;9737;59.466;18.036;2024-01-30T05:28:05;42.20;;;12.88;;
19207;SDS011;9737;59.466;18.036;2024-01-30T05:30:34;54.30;;;13.45;;
19207;SDS011;9737;59.466;18.036;2024-01-30T05:33:03;55.42;;;13.73;;
19207;SDS011;9737;59.466;18.036;2024-01-30T05:35:32;66.38;;;14.80;;
19207;SDS011;9737;59.466;18.036;2024-01-30T05:38:00;62.00;;;13.55;;
19207;SDS011;9737;59.466;18.036;2024-01-30T05:40:27;63.75;;;14.00;;
19207;SDS011;9737;59.466;18.036;2024-01-30T05:42:55;59.70;;;13.48;;
19207;SDS011;9737;59.466;18.036;2024-01-30T05:45:25;62.95;;;15.32;;
19207;SDS011;9737;59.466;18.036;2024-01-30T05:47:53;66.45;;;14.35;;
19207;SDS011;9737;59.466;18.036;2024-01-30T05:50:22;57.45;;;15.18;;
19207;SDS011;9737;59.466;18.036;2024-01-30T05:52:51;60.97;;;14.50;;
19207;SDS011;9737;59.466;18.036;2024-01-30T05:55:19;60.65;;;13.77;;
19207;SDS011;9737;59.466;18.036;2024-01-30T05:57:47;84.43;;;15.20;;
19207;SDS011;9737;59.466;18.036;2024-01-30T06:00:15;59.33;;;14.23;;
19207;SDS011;9737;59.466;18.036;2024-01-30T06:02:44;73.03;;;15.60;;
19207;SDS011;9737;59.466;18.036;2024-01-30T06:05:12;52.63;;;13.98;;
19207;SDS011;9737;59.466;18.036;2024-01-30T06:07:41;85.43;;;14.45;;
19207;SDS011;9737;59.466;18.036;2024-01-30T06:10:09;68.05;;;15.00;;
19207;SDS011;9737;59.466;18.036;2024-01-30T06:12:37;61.13;;;13.70;;
19207;SDS011;9737;59.466;18.036;2024-01-30T06:15:05;65.88;;;14.93;;
19207;SDS011;9737;59.466;18.036;2024-01-30T06:17:34;40.40;;;13.35;;
19207;SDS011;9737;59.466;18.036;2024-01-30T06:20:04;56.25;;;13.60;;
19207;SDS011;9737;59.466;18.036;2024-01-30T06:22:33;44.45;;;12.88;;
19207;SDS011;9737;59.466;18.036;2024-01-30T06:25:02;47.67;;;13.10;;
19207;SDS011;9737;59.466;18.036;2024-01-30T06:27:30;44.72;;;13.68;;
19207;SDS011;9737;59.466;18.036;2024-01-30T06:29:58;48.20;;;13.52;;
19207;SDS011;9737;59.466;18.036;2024-01-30T06:32:26;58.83;;;15.40;;
19207;SDS011;9737;59.466;18.036;2024-01-30T06:34:55;62.60;;;15.02;;
19207;SDS011;9737;59.466;18.036;2024-01-30T06:37:23;70.22;;;15.35;;
19207;SDS011;9737;59.466;18.036;2024-01-30T06:39:51;58.13;;;14.65;;
19207;SDS011;9737;59.466;18.036;2024-01-30T06:42:20;67.07;;;17.80;;
19207;SDS011;9737;59.466;18.036;2024-01-30T06:44:48;68.30;;;18.23;;
19207;SDS011;9737;59.466;18.036;2024-01-30T06:47:16;65.68;;;18.25;;
19207;SDS011;9737;59.466;18.036;2024-01-30T06:49:44;67.45;;;18.50;;
19207;SDS011;9737;59.466;18.036;2024-01-30T06:52:12;60.55;;;17.08;;
19207;SDS011;9737;59.466;18.036;2024-01-30T06:54:40;59.63;;;16.33;;
19207;SDS011;9737;59.466;18.036;2024-01-30T06:57:08;56.55;;;15.25;;
19207;SDS011;9737;59.466;18.036;2024-01-30T06:59:39;50.53;;;14.95;;
19207;SDS011;9737;59.466;18.036;2024-01-30T07:02:09;59.30;;;15.07;;
19207;SDS011;9737;59.466;18.036;2024-01-30T07:04:37;50.50;;;14.27;;
19207;SDS011;9737;59.466;18.036;2024-01-30T07:07:11;52.35;;;14.93;;
19207;SDS011;9737;59.466;18.036;2024-01-30T07:09:41;46.40;;;12.98;;
19207;SDS011;9737;59.466;18.036;2024-01-30T07:12:09;46.78;;;13.32;;
19207;SDS011;9737;59.466;18.036;2024-01-30T07:14:37;43.95;;;13.60;;
19207;SDS011;9737;59.466;18.036;2024-01-30T07:17:06;42.00;;;13.43;;
19207;SDS011;9737;59.466;18.036;2024-01-30T07:19:34;47.85;;;13.32;;
19207;SDS011;9737;59.466;18.036;2024-01-30T07:22:06;46.70;;;12.85;;
19207;SDS011;9737;59.466;18.036;2024-01-30T07:24:34;54.30;;;13.07;;
19207;SDS011;9737;59.466;18.036;2024-01-30T07:27:02;56.22;;;14.15;;
19207;SDS011;9737;59.466;18.036;2024-01-30T07:29:30;44.85;;;13.20;;
19207;SDS011;9737;59.466;18.036;2024-01-30T07:31:58;53.70;;;13.82;;
19207;SDS011;9737;59.466;18.036;2024-01-30T07:34:27;41.78;;;14.27;;
19207;SDS011;9737;59.466;18.036;2024-01-30T07:36:55;77.65;;;13.23;;
19207;SDS011;9737;59.466;18.036;2024-01-30T07:39:23;36.60;;;11.13;;
19207;SDS011;9737;59.466;18.036;2024-01-30T07:41:53;68.63;;;12.57;;
19207;SDS011;9737;59.466;18.036;2024-01-30T07:44:21;45.92;;;11.40;;
19207;SDS011;9737;59.466;18.036;2024-01-30T07:46:50;47.88;;;12.27;;
19207;SDS011;9737;59.466;18.036;2024-01-30T07:49:18;63.65;;;12.60;;
19207;SDS011;9737;59.466;18.036;2024-01-30T07:51:47;63.22;;;12.60;;
19207;SDS011;9737;59.466;18.036;2024-01-30T07:54:17;57.10;;;11.63;;
19207;SDS011;9737;59.466;18.036;2024-01-30T07:56:45;42.40;;;10.95;;
19207;SDS011;9737;59.466;18.036;2024-01-30T07:59:13;51.10;;;11.68;;
19207;SDS011;9737;59.466;18.036;2024-01-30T08:01:41;46.47;;;11.55;;
19207;SDS011;9737;59.466;18.036;2024-01-30T08:04:09;54.67;;;11.35;;
19207;SDS011;9737;59.466;18.036;2024-01-30T08:06:37;53.15;;;12.10;;
19207;SDS011;9737;59.466;18.036;2024-01-30T08:09:11;42.10;;;12.45;;
19207;SDS011;9737;59.466;18.036;2024-01-30T08:11:39;30.85;;;11.00;;
19207;SDS011;9737;59.466;18.036;2024-01-30T08:14:07;39.70;;;11.30;;
19207;SDS011;9737;59.466;18.036;2024-01-30T08:16:34;45.05;;;11.20;;
19207;SDS011;9737;59.466;18.036;2024-01-30T08:19:02;46.08;;;12.05;;
19207;SDS011;9737;59.466;18.036;2024-01-30T08:21:30;58.10;;;11.52;;
19207;SDS011;9737;59.466;18.036;2024-01-30T08:24:05;60.08;;;11.48;;
19207;SDS011;9737;59.466;18.036;2024-01-30T08:26:35;63.50;;;11.45;;
19207;SDS011;9737;59.466;18.036;2024-01-30T08:29:03;49.88;;;11.60;;
19207;SDS011;9737;59.466;18.036;2024-01-30T08:31:31;44.50;;;10.73;;
19207;SDS011;9737;59.466;18.036;2024-01-30T08:33:59;48.50;;;10.95;;
19207;SDS011;9737;59.466;18.036;2024-01-30T08:36:27;35.05;;;10.88;;
19207;SDS011;9737;59.466;18.036;2024-01-30T08:38:55;42.53;;;11.30;;
19207;SDS011;9737;59.466;18.036;2024-01-30T08:41:29;46.42;;;11.30;;
19207;SDS011;9737;59.466;18.036;2024-01-30T08:44:00;29.92;;;10.70;;
19207;SDS011;9737;59.466;18.036;2024-01-30T08:46:28;34.58;;;10.18;;
19207;SDS011;9737;59.466;18.036;2024-01-30T08:48:57;36.30;;;10.65;;
19207;SDS011;9737;59.466;18.036;2024-01-30T08:51:25;36.72;;;10.48;;
19207;SDS011;9737;59.466;18.036;2024-01-30T08:53:53;30.35;;;10.43;;
19207;SDS011;9737;59.466;18.036;2024-01-30T08:56:21;36.05;;;11.32;;
19207;SDS011;9737;59.466;18.036;2024-01-30T08:58:49;33.25;;;11.13;;
19207;SDS011;9737;59.466;18.036;2024-01-30T09:01:18;40.53;;;11.50;;
19207;SDS011;9737;59.466;18.036;2024-01-30T09:03:48;42.70;;;10.25;;
19207;SDS011;9737;59.466;18.036;2024-01-30T09:06:16;33.58;;;11.60;;
19207;SDS011;9737;59.466;18.036;2024-01-30T09:08:44;32.50;;;10.23;;
19207;SDS011;9737;59.466;18.036;2024-01-30T09:11:12;37.45;;;10.82;;
19207;SDS011;9737;59.466;18.036;2024-01-30T09:13:41;42.85;;;10.48;;
19207;SDS011;9737;59.466;18.036;2024-01-30T09:16:09;49.83;;;11.20;;
19207;SDS011;9737;59.466;18.036;2024-01-30T09:18:39;46.70;;;11.73;;
19207;SDS011;9737;59.466;18.036;2024-01-30T09:21:07;45.80;;;11.27;;
19207;SDS011;9737;59.466;18.036;2024-01-30T09:23:35;39.20;;;11.40;;
19207;SDS011;9737;59.466;18.036;2024-01-30T09:26:03;35.47;;;11.02;;
19207;SDS011;9737;59.466;18.036;2024-01-30T09:28:31;38.30;;;11.80;;
19207;SDS011;9737;59.466;18.036;2024-01-30T09:30:58;35.17;;;10.85;;
19207;SDS011;9737;59.466;18.036;2024-01-30T09:33:26;36.60;;;10.73;;
19207;SDS011;9737;59.466;18.036;2024-01-30T09:35:56;33.25;;;12.32;;
19207;SDS011;9737;59.466;18.036;2024-01-30T09:38:23;41.10;;;11.75;;
19207;SDS011;9737;59.466;18.036;2024-01-30T09:40:53;36.53;;;11.38;;
19207;SDS011;9737;59.466;18.036;2024-01-30T09:43:22;47.13;;;12.32;;
19207;SDS011;9737;59.466;18.036;2024-01-30T09:45:53;50.53;;;12.93;;
19207;SDS011;9737;59.466;18.036;2024-01-30T09:48:21;49.60;;;12.50;;
19207;SDS011;9737;59.466;18.036;2024-01-30T09:50:50;42.70;;;11.25;;
19207;SDS011;9737;59.466;18.036;2024-01-30T09:53:20;38.15;;;11.82;;
19207;SDS011;9737;59.466;18.036;2024-01-30T09:55:49;50.08;;;12.13;;
19207;SDS011;9737;59.466;18.036;2024-01-30T09:58:18;37.13;;;11.98;;
19207;SDS011;9737;59.466;18.036;2024-01-30T10:00:46;39.00;;;13.57;;
19207;SDS011;9737;59.466;18.036;2024-01-30T10:03:14;44.13;;;14.18;;
19207;SDS011;9737;59.466;18.036;2024-01-30T10:05:42;45.13;;;14.13;;
19207;SDS011;9737;59.466;18.036;2024-01-30T10:08:18;43.08;;;14.02;;
19207;SDS011;9737;59.466;18.036;2024-01-30T10:10:48;39.40;;;13.43;;
19207;SDS011;9737;59.466;18.036;2024-01-30T10:13:17;35.00;;;12.13;;
19207;SDS011;9737;59.466;18.036;2024-01-30T10:15:45;37.92;;;12.57;;
19207;SDS011;9737;59.466;18.036;2024-01-30T10:18:15;28.05;;;11.32;;
19207;SDS011;9737;59.466;18.036;2024-01-30T10:21:33;56.30;;;14.48;;
19207;SDS011;9737;59.466;18.036;2024-01-30T10:24:02;62.95;;;13.52;;
19207;SDS011;9737;59.466;18.036;2024-01-30T10:26:30;66.78;;;14.15;;
19207;SDS011;9737;59.466;18.036;2024-01-30T10:29:01;65.78;;;14.73;;
19207;SDS011;9737;59.466;18.036;2024-01-30T10:31:29;66.38;;;13.57;;
19207;SDS011;9737;59.466;18.036;2024-01-30T10:33:57;59.22;;;13.07;;
19207;SDS011;9737;59.466;18.036;2024-01-30T10:36:43;56.88;;;12.65;;
19207;SDS011;9737;59.466;18.036;2024-01-30T10:39:17;38.20;;;12.07;;
19207;SDS011;9737;59.466;18.036;2024-01-30T10:41:48;36.78;;;11.63;;
19207;SDS011;9737;59.466;18.036;2024-01-30T10:44:20;32.55;;;11.05;;
19207;SDS011;9737;59.466;18.036;2024-01-30T10:46:50;29.15;;;10.55;;
19207;SDS011;9737;59.466;18.036;2024-01-30T10:49:27;30.85;;;10.68;;
19207;SDS011;9737;59.466;18.036;2024-01-30T10:51:58;28.58;;;10.63;;
19207;SDS011;9737;59.466;18.036;2024-01-30T10:54:27;29.98;;;10.63;;
19207;SDS011;9737;59.466;18.036;2024-01-30T10:56:56;30.58;;;11.25;;
19207;SDS011;9737;59.466;18.036;2024-01-30T10:59:28;29.35;;;11.40;;
19207;SDS011;9737;59.466;18.036;2024-01-30T11:01:57;26.98;;;10.95;;
19207;SDS011;9737;59.466;18.036;2024-01-30T11:04:26;30.10;;;11.75;;
19207;SDS011;9737;59.466;18.036;2024-01-30T11:06:54;29.50;;;11.80;;
19207;SDS011;9737;59.466;18.036;2024-01-30T11:09:23;28.90;;;11.60;;
19207;SDS011;9737;59.466;18.036;2024-01-30T11:11:51;29.33;;;11.27;;
19207;SDS011;9737;59.466;18.036;2024-01-30T11:14:27;28.95;;;11.18;;
19207;SDS011;9737;59.466;18.036;2024-01-30T11:16:57;27.88;;;12.32;;
19207;SDS011;9737;59.466;18.036;2024-01-30T11:19:25;22.45;;;10.65;;
19207;SDS011;9737;59.466;18.036;2024-01-30T11:21:55;24.98;;;10.70;;
19207;SDS011;9737;59.466;18.036;2024-01-30T11:24:25;31.35;;;12.23;;
19207;SDS011;9737;59.466;18.036;2024-01-30T11:26:55;26.25;;;11.63;;
19207;SDS011;9737;59.466;18.036;2024-01-30T11:29:24;29.98;;;12.07;;
19207;SDS011;9737;59.466;18.036;2024-01-30T11:31:52;28.55;;;11.27;;
19207;SDS011;9737;59.466;18.036;2024-01-30T11:34:20;42.30;;;14.43;;
19207;SDS011;9737;59.466;18.036;2024-01-30T11:36:51;27.58;;;11.68;;
19207;SDS011;9737;59.466;18.036;2024-01-30T11:39:21;28.50;;;12.52;;
19207;SDS011;9737;59.466;18.036;2024-01-30T11:41:53;28.23;;;11.43;;
19207;SDS011;9737;59.466;18.036;2024-01-30T11:44:21;30.17;;;11.68;;
19207;SDS011;9737;59.466;18.036;2024-01-30T11:46:49;29.80;;;11.93;;
19207;SDS011;9737;59.466;18.036;2024-01-30T11:49:18;27.17;;;11.73;;
19207;SDS011;9737;59.466;18.036;2024-01-30T11:51:47;30.67;;;12.02;;
19207;SDS011;9737;59.466;18.036;2024-01-30T11:54:16;29.38;;;12.60;;
19207;SDS011;9737;59.466;18.036;2024-01-30T11:56:44;29.17;;;11.88;;
19207;SDS011;9737;59.466;18.036;2024-01-30T11:59:13;28.10;;;11.55;;
19207;SDS011;9737;59.466;18.036;2024-01-30T12:01:41;29.65;;;11.57;;
19207;SDS011;9737;59.466;18.036;2024-01-30T12:04:10;26.42;;;12.23;;
19207;SDS011;9737;59.466;18.036;2024-01-30T12:06:38;29.15;;;12.32;;
19207;SDS011;9737;59.466;18.036;2024-01-30T12:09:07;27.13;;;12.18;;
19207;SDS011;9737;59.466;18.036;2024-01-30T12:11:44;29.33;;;11.95;;
19207;SDS011;9737;59.466;18.036;2024-01-30T12:14:14;30.65;;;12.50;;
19207;SDS011;9737;59.466;18.036;2024-01-30T12:16:43;31.00;;;12.00;;
19207;SDS011;9737;59.466;18.036;2024-01-30T12:19:11;32.15;;;12.95;;
19207;SDS011;9737;59.466;18.036;2024-01-30T12:21:53;29.83;;;12.55;;
19207;SDS011;9737;59.466;18.036;2024-01-30T12:24:22;25.83;;;12.05;;
19207;SDS011;9737;59.466;18.036;2024-01-30T12:26:50;31.52;;;12.57;;
19207;SDS011;9737;59.466;18.036;2024-01-30T12:29:21;33.03;;;13.30;;
19207;SDS011;9737;59.466;18.036;2024-01-30T12:31:49;29.35;;;12.40;;
19207;SDS011;9737;59.466;18.036;2024-01-30T12:34:20;32.50;;;13.50;;
19207;SDS011;9737;59.466;18.036;2024-01-30T12:36:48;31.85;;;13.07;;
19207;SDS011;9737;59.466;18.036;2024-01-30T12:39:17;34.58;;;13.82;;
19207;SDS011;9737;59.466;18.036;2024-01-30T12:41:45;32.20;;;13.40;;
19207;SDS011;9737;59.466;18.036;2024-01-30T12:44:13;32.67;;;12.70;;
19207;SDS011;9737;59.466;18.036;2024-01-30T12:46:43;34.45;;;13.35;;
19207;SDS011;9737;59.466;18.036;2024-01-30T12:49:14;34.17;;;13.63;;
19207;SDS011;9737;59.466;18.036;2024-01-30T12:51:42;36.95;;;14.20;;
19207;SDS011;9737;59.466;18.036;2024-01-30T12:54:12;35.65;;;14.25;;
19207;SDS011;9737;59.466;18.036;2024-01-30T12:56:40;31.10;;;14.43;;
19207;SDS011;9737;59.466;18.036;2024-01-30T12:59:08;34.63;;;14.43;;
19207;SDS011;9737;59.466;18.036;2024-01-30T13:01:36;31.45;;;13.60;;
19207;SDS011;9737;59.466;18.036;2024-01-30T13:04:05;30.70;;;13.05;;
19207;SDS011;9737;59.466;18.036;2024-01-30T13:06:33;35.63;;;12.25;;
19207;SDS011;9737;59.466;18.036;2024-01-30T13:09:01;34.22;;;14.30;;
19207;SDS011;9737;59.466;18.036;2024-01-30T13:11:29;38.03;;;14.70;;
19207;SDS011;9737;59.466;18.036;2024-01-30T13:13:58;35.88;;;14.25;;
19207;SDS011;9737;59.466;18.036;2024-01-30T13:16:26;41.30;;;14.60;;
19207;SDS011;9737;59.466;18.036;2024-01-30T13:18:54;41.53;;;15.00;;
19207;SDS011;9737;59.466;18.036;2024-01-30T13:21:23;38.20;;;14.50;;
19207;SDS011;9737;59.466;18.036;2024-01-30T13:23:51;40.08;;;14.65;;
19207;SDS011;9737;59.466;18.036;2024-01-30T13:26:20;35.35;;;14.15;;
19207;SDS011;9737;59.466;18.036;2024-01-30T13:28:49;38.80;;;15.18;;
19207;SDS011;9737;59.466;18.036;2024-01-30T13:31:17;36.95;;;14.77;;
19207;SDS011;9737;59.466;18.036;2024-01-30T13:33:45;45.22;;;15.93;;
19207;SDS011;9737;59.466;18.036;2024-01-30T13:36:15;49.70;;;15.95;;
19207;SDS011;9737;59.466;18.036;2024-01-30T13:38:44;43.58;;;16.50;;
19207;SDS011;9737;59.466;18.036;2024-01-30T13:41:12;50.00;;;16.13;;
19207;SDS011;9737;59.466;18.036;2024-01-30T13:43:40;48.08;;;16.65;;
19207;SDS011;9737;59.466;18.036;2024-01-30T13:46:08;52.50;;;16.38;;
19207;SDS011;9737;59.466;18.036;2024-01-30T13:48:36;48.80;;;17.75;;
19207;SDS011;9737;59.466;18.036;2024-01-30T13:51:04;52.00;;;17.38;;
19207;SDS011;9737;59.466;18.036;2024-01-30T13:53:33;46.60;;;17.00;;
19207;SDS011;9737;59.466;18.036;2024-01-30T13:56:02;47.47;;;17.13;;
19207;SDS011;9737;59.466;18.036;2024-01-30T13:58:30;56.10;;;18.98;;
19207;SDS011;9737;59.466;18.036;2024-01-30T14:01:00;60.05;;;19.00;;
19207;SDS011;9737;59.466;18.036;2024-01-30T14:03:28;55.38;;;19.13;;
19207;SDS011;9737;59.466;18.036;2024-01-30T14:05:56;53.25;;;19.08;;
19207;SDS011;9737;59.466;18.036;2024-01-30T14:08:24;60.65;;;20.20;;
19207;SDS011;9737;59.466;18.036;2024-01-30T14:10:54;53.17;;;18.75;;
19207;SDS011;9737;59.466;18.036;2024-01-30T14:13:23;62.58;;;20.63;;
19207;SDS011;9737;59.466;18.036;2024-01-30T14:15:52;54.13;;;21.38;;
19207;SDS011;9737;59.466;18.036;2024-01-30T14:18:20;56.60;;;20.27;;
19207;SDS011;9737;59.466;18.036;2024-01-30T14:20:49;55.35;;;19.20;;
19207;SDS011;9737;59.466;18.036;2024-01-30T14:23:17;50.63;;;19.02;;
19207;SDS011;9737;59.466;18.036;2024-01-30T14:25:45;55.83;;;21.20;;
19207;SDS011;9737;59.466;18.036;2024-01-30T14:28:13;50.17;;;18.38;;
19207;SDS011;9737;59.466;18.036;2024-01-30T14:30:42;53.90;;;19.92;;